Time;durP1;ratioP1;P1;durP2;ratioP2;P2;SDS_P1;SDS_P2;PMS_P1;PMS_P2;Temp;Humidity;BMP_temperature;BMP_pressure;BME280_temperature;BME280_humidity;BME280_pressure;Samples;Min_cycle;Max_cycle;Signal;HPM_P1;HPM_P2
2022/01/27 00:00:01;;;;;;;31.27;11.82;;;;;;;;;;5045431;28;20041;-57
2022/01/27 00:02:35;;;;;;;31.95;11.13;;;;;;;;;;5048421;28;20060;-58
2022/01/27 00:05:14;;;;;;;26.70;10.75;;;;;;;;;;5065253;28;20179;-57
2022/01/27 00:07:41;;;;;;;28.02;10.95;;;;;;;;;;5059917;28;20068;-58
2022/01/27 00:10:17;;;;;;;30.85;11.05;;;;;;;;;;5065140;28;20064;-56
2022/01/27 00:12:43;;;;;;;27.98;9.70;;;;;;;;;;5057450;28;20094;-58
2022/01/27 00:15:12;;;;;;;32.05;11.05;;;;;;;;;;5044520;28;20053;-58
2022/01/27 00:17:43;;;;;;;29.05;10.82;;;;;;;;;;5043269;28;20055;-57
2022/01/27 00:20:12;;;;;;;31.23;10.48;;;;;;;;;;5067906;28;20041;-57
2022/01/27 00:22:38;;;;;;;24.85;9.98;;;;;;;;;;5060071;28;20060;-57
2022/01/27 00:25:06;;;;;;;28.58;10.15;;;;;;;;;;5068299;28;20061;-59
2022/01/27 00:27:32;;;;;;;25.95;10.68;;;;;;;;;;5068331;28;20083;-57
2022/01/27 00:30:00;;;;;;;31.63;11.23;;;;;;;;;;5063008;28;20044;-57
2022/01/27 00:32:28;;;;;;;27.07;10.10;;;;;;;;;;5068668;28;20064;-57
2022/01/27 00:34:58;;;;;;;25.73;9.90;;;;;;;;;;5062304;28;20341;-57
2022/01/27 00:37:26;;;;;;;29.35;9.55;;;;;;;;;;5068272;28;20056;-58
2022/01/27 00:39:52;;;;;;;31.33;9.85;;;;;;;;;;5063293;28;20052;-57
2022/01/27 00:42:20;;;;;;;24.13;9.43;;;;;;;;;;5068714;28;20048;-57
2022/01/27 00:44:47;;;;;;;26.25;8.43;;;;;;;;;;5062308;28;20080;-57
2022/01/27 00:47:13;;;;;;;23.98;8.75;;;;;;;;;;5068579;28;20041;-58
2022/01/27 00:49:41;;;;;;;23.08;8.85;;;;;;;;;;5063173;28;20048;-57
2022/01/27 00:52:10;;;;;;;25.25;9.48;;;;;;;;;;5068896;28;20055;-54
2022/01/27 00:54:38;;;;;;;22.13;8.70;;;;;;;;;;5061744;28;20047;-56
2022/01/27 00:57:10;;;;;;;23.60;9.27;;;;;;;;;;5067884;28;20059;-60
2022/01/27 00:59:47;;;;;;;23.05;8.82;;;;;;;;;;5064704;28;20044;-57
2022/01/27 01:02:20;;;;;;;23.25;9.23;;;;;;;;;;5068431;28;20135;-57
2022/01/27 01:04:57;;;;;;;28.55;10.35;;;;;;;;;;5061769;28;20068;-56
2022/01/27 01:07:23;;;;;;;31.25;10.80;;;;;;;;;;5068315;28;20067;-56
2022/01/27 01:10:36;;;;;;;21.23;8.88;;;;;;;;;;5062336;28;20056;-56
2022/01/27 01:15:37;;;;;;;21.50;8.57;;;;;;;;;;5059996;28;20040;-57
2022/01/27 01:18:18;;;;;;;25.65;9.38;;;;;;;;;;5068404;28;20052;-57
2022/01/27 01:21:11;;;;;;;22.92;9.02;;;;;;;;;;5062313;28;20041;-58
2022/01/27 01:29:39;;;;;;;22.00;9.32;;;;;;;;;;5071121;28;20044;-60
2022/01/27 01:32:15;;;;;;;24.55;8.77;;;;;;;;;;5065300;28;20071;-55
2022/01/27 01:34:45;;;;;;;22.98;8.90;;;;;;;;;;5069520;28;20073;-57
2022/01/27 01:37:17;;;;;;;29.33;10.43;;;;;;;;;;5061933;28;20130;-56
2022/01/27 01:39:43;;;;;;;25.25;9.82;;;;;;;;;;5067429;28;20053;-58
2022/01/27 01:42:12;;;;;;;25.17;10.25;;;;;;;;;;5062786;28;20131;-57
2022/01/27 01:44:45;;;;;;;;;;;;;;;;;;5066905;28;20052;-61
2022/01/27 01:47:11;;;;;;;21.95;7.15;;;;;;;;;;5068566;28;20300;-60
2022/01/27 01:49:38;;;;;;;27.70;9.15;;;;;;;;;;5067592;28;20068;-61
2022/01/27 01:52:06;;;;;;;27.45;9.40;;;;;;;;;;5061688;28;20141;-56
2022/01/27 01:54:33;;;;;;;23.23;8.93;;;;;;;;;;5066733;28;20057;-58
2022/01/27 01:57:00;;;;;;;21.77;9.38;;;;;;;;;;5061791;28;20175;-61
2022/01/27 01:59:28;;;;;;;27.45;10.02;;;;;;;;;;5067698;28;20152;-53
2022/01/27 02:01:54;;;;;;;22.17;10.15;;;;;;;;;;5063444;28;20121;-57
2022/01/27 02:04:28;;;;;;;24.30;9.88;;;;;;;;;;5069707;28;20052;-60
2022/01/27 02:06:58;;;;;;;26.77;10.40;;;;;;;;;;5062816;28;20048;-53
2022/01/27 02:09:34;;;;;;;24.88;9.88;;;;;;;;;;5067089;28;20091;-53
2022/01/27 02:20:15;;;;;;;26.05;10.10;;;;;;;;;;5067514;28;20230;-58
2022/01/27 02:22:42;;;;;;;25.23;10.07;;;;;;;;;;5077760;28;20071;-60
2022/01/27 02:25:09;;;;;;;31.27;9.50;;;;;;;;;;5066597;28;20460;-56
2022/01/27 02:27:35;;;;;;;27.77;11.02;;;;;;;;;;5060694;28;20147;-58
2022/01/27 02:30:02;;;;;;;27.30;9.35;;;;;;;;;;5066539;28;20056;-61
2022/01/27 02:32:28;;;;;;;28.80;10.40;;;;;;;;;;5061714;28;20140;-56
2022/01/27 02:34:55;;;;;;;24.10;10.02;;;;;;;;;;5064991;28;20102;-54
2022/01/27 02:37:23;;;;;;;30.38;11.25;;;;;;;;;;5066465;28;20139;-58
2022/01/27 02:39:49;;;;;;;34.07;10.87;;;;;;;;;;5061095;28;20475;-53
2022/01/27 02:42:17;;;;;;;24.90;10.70;;;;;;;;;;5065241;28;20052;-53
2022/01/27 02:44:52;;;;;;;27.90;9.93;;;;;;;;;;5058325;28;20118;-56
2022/01/27 02:47:19;;;;;;;27.55;9.85;;;;;;;;;;5065483;28;20053;-55
2022/01/27 02:49:46;;;;;;;28.50;9.70;;;;;;;;;;5059660;28;20052;-55
2022/01/27 02:52:12;;;;;;;29.27;10.77;;;;;;;;;;5065862;28;20117;-56
2022/01/27 02:54:41;;;;;;;35.13;12.10;;;;;;;;;;5059816;28;20052;-53
2022/01/27 02:57:09;;;;;;;;;;;;;;;;;;5066482;28;20075;-53
2022/01/27 02:59:36;;;;;;;21.02;8.60;;;;;;;;;;5060749;28;20015;-55
2022/01/27 03:02:03;;;;;;;22.15;8.85;;;;;;;;;;5066971;28;20485;-59
2022/01/27 03:04:30;;;;;;;27.77;9.45;;;;;;;;;;5060199;28;20045;-55
2022/01/27 03:06:57;;;;;;;26.88;10.63;;;;;;;;;;5065309;28;20125;-56
2022/01/27 03:09:23;;;;;;;29.40;10.48;;;;;;;;;;5060311;28;20102;-57
2022/01/27 03:11:52;;;;;;;29.67;10.70;;;;;;;;;;5066564;28;20124;-56
2022/01/27 03:14:22;;;;;;;29.48;9.85;;;;;;;;;;5060691;28;20147;-53
2022/01/27 03:16:49;;;;;;;25.75;9.18;;;;;;;;;;5066180;28;20087;-54
2022/01/27 03:19:16;;;;;;;28.67;10.13;;;;;;;;;;5048093;28;20070;-53
2022/01/27 03:21:43;;;;;;;26.92;10.15;;;;;;;;;;5065338;28;20055;-58
2022/01/27 03:24:11;;;;;;;27.85;10.13;;;;;;;;;;5066995;28;20053;-57
2022/01/27 03:26:37;;;;;;;31.48;11.63;;;;;;;;;;5060547;28;20045;-56
2022/01/27 03:29:05;;;;;;;26.38;9.48;;;;;;;;;;5065953;28;20135;-59
2022/01/27 03:31:32;;;;;;;24.17;10.27;;;;;;;;;;5061395;28;20071;-57
2022/01/27 03:33:58;;;;;;;25.80;8.35;;;;;;;;;;5068159;28;20303;-58
2022/01/27 03:36:25;;;;;;;25.05;9.73;;;;;;;;;;5061801;28;20052;-59
2022/01/27 03:38:51;;;;;;;27.58;9.70;;;;;;;;;;5065451;28;20144;-55
2022/01/27 03:41:21;;;;;;;29.27;9.68;;;;;;;;;;5059793;28;20480;-58
2022/01/27 03:43:48;;;;;;;24.40;9.73;;;;;;;;;;5065303;28;20055;-54
2022/01/27 03:46:16;;;;;;;28.95;10.07;;;;;;;;;;5058178;28;20105;-53
2022/01/27 03:48:43;;;;;;;22.67;9.77;;;;;;;;;;5065470;28;20049;-58
2022/01/27 03:51:09;;;;;;;25.50;10.38;;;;;;;;;;5060405;28;20056;-53
2022/01/27 03:53:36;;;;;;;28.58;10.27;;;;;;;;;;5065613;28;20076;-55
2022/01/27 03:56:03;;;;;;;23.77;8.43;;;;;;;;;;5063958;28;20048;-57
2022/01/27 03:58:29;;;;;;;31.88;10.77;;;;;;;;;;5069466;28;20571;-56
2022/01/27 04:00:56;;;;;;;27.33;9.02;;;;;;;;;;5065241;28;20068;-56
2022/01/27 04:03:24;;;;;;;19.45;8.45;;;;;;;;;;5067981;28;20048;-56
2022/01/27 04:05:53;;;;;;;24.45;10.13;;;;;;;;;;5069101;28;20354;-57
2022/01/27 04:08:20;;;;;;;24.63;9.40;;;;;;;;;;5063623;28;20062;-56
2022/01/27 04:10:47;;;;;;;30.67;9.75;;;;;;;;;;5069098;28;20052;-54
2022/01/27 04:13:14;;;;;;;21.90;8.55;;;;;;;;;;5062830;28;20060;-56
2022/01/27 04:15:44;;;;;;;27.45;9.63;;;;;;;;;;5068832;28;20146;-56
2022/01/27 04:18:10;;;;;;;28.15;8.75;;;;;;;;;;5063055;28;20056;-52
2022/01/27 04:20:39;;;;;;;29.60;10.23;;;;;;;;;;5069180;28;20060;-56
2022/01/27 04:23:08;;;;;;;22.40;7.90;;;;;;;;;;5063559;28;20187;-55
2022/01/27 04:25:37;;;;;;;29.52;8.85;;;;;;;;;;5068770;28;20056;-54
2022/01/27 04:28:07;;;;;;;24.35;8.73;;;;;;;;;;5063277;28;20041;-54
2022/01/27 04:30:34;;;;;;;22.08;8.60;;;;;;;;;;5069493;28;20052;-56
2022/01/27 04:33:03;;;;;;;29.67;9.40;;;;;;;;;;5064229;28;20056;-60
2022/01/27 04:35:32;;;;;;;;;;;;;;;;;;5069247;28;20055;-60
2022/01/27 04:38:13;;;;;;;21.15;8.05;;;;;;;;;;5062740;28;19924;-57
2022/01/27 04:40:46;;;;;;;22.48;9.13;;;;;;;;;;5068902;28;20052;-59
2022/01/27 04:43:21;;;;;;;21.58;8.45;;;;;;;;;;5063294;28;20044;-55
2022/01/27 04:45:56;;;;;;;22.52;8.25;;;;;;;;;;5068313;28;20056;-59
2022/01/27 04:48:24;;;;;;;22.38;7.88;;;;;;;;;;5063329;28;20048;-54
2022/01/27 04:50:52;;;;;;;28.67;9.25;;;;;;;;;;5068888;28;20044;-59
2022/01/27 04:53:26;;;;;;;25.13;8.70;;;;;;;;;;5063024;28;20048;-56
2022/01/27 04:55:54;;;;;;;23.02;8.30;;;;;;;;;;5068550;28;20052;-55
2022/01/27 04:58:29;;;;;;;24.27;8.25;;;;;;;;;;5063420;28;20094;-55
2022/01/27 05:00:57;;;;;;;25.85;8.45;;;;;;;;;;5069351;28;20107;-56
2022/01/27 05:03:37;;;;;;;24.40;7.47;;;;;;;;;;5066027;28;20044;-61
2022/01/27 05:06:04;;;;;;;19.33;7.60;;;;;;;;;;5049224;28;20048;-54
2022/01/27 05:08:33;;;;;;;22.92;7.05;;;;;;;;;;5045872;28;20051;-53
2022/01/27 05:11:03;;;;;;;29.13;8.23;;;;;;;;;;5067082;28;20045;-57
2022/01/27 05:13:37;;;;;;;25.23;7.57;;;;;;;;;;5068748;28;20188;-56
2022/01/27 05:16:04;;;;;;;24.27;8.00;;;;;;;;;;5063290;28;20056;-57
2022/01/27 05:18:30;;;;;;;17.92;6.80;;;;;;;;;;5069067;28;20068;-53
2022/01/27 05:20:56;;;;;;;20.88;6.93;;;;;;;;;;5063524;28;20131;-54
2022/01/27 05:23:25;;;;;;;16.50;6.43;;;;;;;;;;5068352;28;20059;-52
2022/01/27 05:25:53;;;;;;;21.35;7.15;;;;;;;;;;5062064;28;20564;-54
2022/01/27 05:28:20;;;;;;;18.98;7.00;;;;;;;;;;5067586;28;20067;-56
2022/01/27 05:30:46;;;;;;;19.85;7.03;;;;;;;;;;5052619;28;20071;-52
2022/01/27 05:33:13;;;;;;;19.38;6.97;;;;;;;;;;5047572;28;20053;-52
2022/01/27 05:35:39;;;;;;;22.08;6.82;;;;;;;;;;5051262;28;20110;-56
2022/01/27 05:38:06;;;;;;;25.27;7.20;;;;;;;;;;5068826;28;20052;-56
2022/01/27 05:40:32;;;;;;;18.85;6.15;;;;;;;;;;5062776;28;20065;-55
2022/01/27 05:43:02;;;;;;;23.95;6.72;;;;;;;;;;5067762;28;20056;-55
2022/01/27 05:45:28;;;;;;;15.38;5.53;;;;;;;;;;5061372;28;20049;-56
2022/01/27 05:47:55;;;;;;;20.77;6.40;;;;;;;;;;5067634;28;20056;-55
2022/01/27 05:50:21;;;;;;;21.73;6.40;;;;;;;;;;5061542;28;20056;-54
2022/01/27 05:52:48;;;;;;;20.48;6.50;;;;;;;;;;5066922;28;20056;-56
2022/01/27 05:55:14;;;;;;;20.08;6.18;;;;;;;;;;5066771;28;20052;-52
2022/01/27 05:57:41;;;;;;;28.70;7.72;;;;;;;;;;5060886;28;20052;-55
2022/01/27 06:00:11;;;;;;;20.33;7.10;;;;;;;;;;5067381;28;20060;-51
2022/01/27 06:02:38;;;;;;;17.48;5.97;;;;;;;;;;5062374;28;20052;-56
2022/01/27 06:05:04;;;;;;;16.35;6.10;;;;;;;;;;5066917;28;20144;-55
2022/01/27 06:07:31;;;;;;;19.70;6.13;;;;;;;;;;5061165;28;20048;-53
2022/01/27 06:09:57;;;;;;;22.25;6.50;;;;;;;;;;5065500;28;20515;-54
2022/01/27 06:12:24;;;;;;;18.30;5.68;;;;;;;;;;5061118;28;20072;-55
2022/01/27 06:14:50;;;;;;;23.67;7.78;;;;;;;;;;5066861;28;20049;-57
2022/01/27 06:17:19;;;;;;;21.50;7.63;;;;;;;;;;5062493;28;20044;-56
2022/01/27 06:19:46;;;;;;;21.90;6.03;;;;;;;;;;5068589;28;20067;-56
2022/01/27 06:22:13;;;;;;;17.75;6.03;;;;;;;;;;5053284;28;20045;-55
2022/01/27 06:24:40;;;;;;;25.58;6.78;;;;;;;;;;5068498;28;20058;-53
2022/01/27 06:27:07;;;;;;;17.02;5.95;;;;;;;;;;5062015;28;20056;-52
2022/01/27 06:29:33;;;;;;;23.50;6.18;;;;;;;;;;5069667;28;20049;-55
2022/01/27 06:32:00;;;;;;;20.45;6.25;;;;;;;;;;5057583;28;20053;-58
2022/01/27 06:34:28;;;;;;;20.13;6.38;;;;;;;;;;5070992;28;20133;-53
2022/01/27 06:36:54;;;;;;;20.73;6.35;;;;;;;;;;5070222;28;20064;-55
2022/01/27 06:39:21;;;;;;;26.75;6.68;;;;;;;;;;5063868;28;20056;-56
2022/01/27 06:41:47;;;;;;;21.33;6.20;;;;;;;;;;5068284;28;20056;-56
2022/01/27 06:44:14;;;;;;;23.50;7.95;;;;;;;;;;5061626;28;20132;-60
2022/01/27 06:46:40;;;;;;;24.98;6.45;;;;;;;;;;5068339;28;20057;-59
2022/01/27 06:49:07;;;;;;;27.33;7.80;;;;;;;;;;5061421;28;20084;-56
2022/01/27 06:51:35;;;;;;;22.08;6.78;;;;;;;;;;5067623;28;20047;-59
2022/01/27 06:54:03;;;;;;;17.10;6.83;;;;;;;;;;5062108;28;20305;-54
2022/01/27 06:56:29;;;;;;;20.43;7.10;;;;;;;;;;5067185;28;20056;-59
2022/01/27 06:58:56;;;;;;;19.98;5.65;;;;;;;;;;5060775;28;20121;-55
2022/01/27 07:01:22;;;;;;;18.88;6.03;;;;;;;;;;5066350;28;20052;-59
2022/01/27 07:03:49;;;;;;;27.15;7.30;;;;;;;;;;5061813;28;20067;-59
2022/01/27 07:06:15;;;;;;;16.58;6.18;;;;;;;;;;5066220;28;20155;-60
2022/01/27 07:08:43;;;;;;;15.05;5.70;;;;;;;;;;5061127;28;20059;-59
2022/01/27 07:11:10;;;;;;;17.58;6.25;;;;;;;;;;5067677;28;20059;-60
2022/01/27 07:13:40;;;;;;;25.85;6.68;;;;;;;;;;5058681;28;20045;-57
2022/01/27 07:16:06;;;;;;;21.42;6.90;;;;;;;;;;5066210;28;20056;-55
2022/01/27 07:18:33;;;;;;;23.40;7.40;;;;;;;;;;5064643;28;20052;-59
2022/01/27 07:20:59;;;;;;;22.00;6.30;;;;;;;;;;5063004;28;20144;-57
2022/01/27 07:23:26;;;;;;;18.58;7.53;;;;;;;;;;5056058;28;20057;-56
2022/01/27 07:25:54;;;;;;;19.90;7.05;;;;;;;;;;5056982;28;20053;-58
2022/01/27 07:28:20;;;;;;;17.95;7.10;;;;;;;;;;5065774;28;20060;-55
2022/01/27 07:30:47;;;;;;;23.75;7.18;;;;;;;;;;5060211;28;20072;-56
2022/01/27 07:33:15;;;;;;;18.70;6.28;;;;;;;;;;5066772;28;20114;-59
2022/01/27 07:35:42;;;;;;;20.10;6.82;;;;;;;;;;5060451;28;20076;-59
2022/01/27 07:38:08;;;;;;;16.35;6.72;;;;;;;;;;5047977;28;20144;-55
2022/01/27 07:40:35;;;;;;;14.93;5.35;;;;;;;;;;5059901;28;20052;-54
2022/01/27 07:43:03;;;;;;;19.67;6.25;;;;;;;;;;5046132;28;20140;-58
2022/01/27 07:45:29;;;;;;;15.68;6.18;;;;;;;;;;5058254;28;20139;-56
2022/01/27 07:47:57;;;;;;;18.33;7.07;;;;;;;;;;5066202;28;20063;-56
2022/01/27 07:50:28;;;;;;;24.00;7.00;;;;;;;;;;5060686;28;20086;-56
2022/01/27 07:52:55;;;;;;;18.92;6.47;;;;;;;;;;5066067;28;20070;-56
2022/01/27 07:55:21;;;;;;;22.10;6.95;;;;;;;;;;5060220;28;20053;-56
2022/01/27 07:57:48;;;;;;;17.20;6.10;;;;;;;;;;5066716;28;20048;-57
2022/01/27 08:00:16;;;;;;;17.52;6.85;;;;;;;;;;5062108;28;20104;-56
2022/01/27 08:02:43;;;;;;;17.25;6.55;;;;;;;;;;5047875;28;20041;-56
2022/01/27 08:05:10;;;;;;;15.75;6.53;;;;;;;;;;5048165;28;20061;-56
2022/01/27 08:07:36;;;;;;;19.02;7.00;;;;;;;;;;5051190;28;20053;-58
2022/01/27 08:10:03;;;;;;;18.85;6.50;;;;;;;;;;5046424;28;20065;-57
2022/01/27 08:12:29;;;;;;;17.17;7.28;;;;;;;;;;5054862;28;20151;-56
2022/01/27 08:14:56;;;;;;;17.55;6.00;;;;;;;;;;5035854;28;20110;-56
2022/01/27 08:17:24;;;;;;;18.63;5.95;;;;;;;;;;5043390;28;20059;-56
2022/01/27 08:19:50;;;;;;;17.50;6.53;;;;;;;;;;5065550;28;20052;-56
2022/01/27 08:22:17;;;;;;;15.88;6.05;;;;;;;;;;5059676;28;20114;-51
2022/01/27 08:24:44;;;;;;;17.20;5.72;;;;;;;;;;5065161;28;20087;-54
2022/01/27 08:27:15;;;;;;;18.52;6.32;;;;;;;;;;5059528;28;20139;-53
2022/01/27 08:29:46;;;;;;;19.02;7.00;;;;;;;;;;5066322;28;20057;-54
2022/01/27 08:32:17;;;;;;;19.13;6.13;;;;;;;;;;5059769;28;20343;-56
2022/01/27 08:34:46;;;;;;;17.65;6.18;;;;;;;;;;5065226;28;20065;-54
2022/01/27 08:37:13;;;;;;;15.05;5.63;;;;;;;;;;5059223;28;20145;-54
2022/01/27 08:39:40;;;;;;;17.27;5.65;;;;;;;;;;5064009;28;20059;-54
2022/01/27 08:42:07;;;;;;;14.18;5.55;;;;;;;;;;5062670;28;24264;-56
2022/01/27 08:44:34;;;;;;;20.83;5.88;;;;;;;;;;5068470;28;20044;-57
2022/01/27 08:47:01;;;;;;;12.48;5.18;;;;;;;;;;5047358;28;20148;-54
2022/01/27 08:49:28;;;;;;;19.80;6.70;;;;;;;;;;5067328;28;20052;-56
2022/01/27 08:51:56;;;;;;;14.88;5.43;;;;;;;;;;5069066;28;20105;-60
2022/01/27 08:54:23;;;;;;;18.42;7.00;;;;;;;;;;5062338;28;20078;-57
2022/01/27 08:56:50;;;;;;;21.23;5.97;;;;;;;;;;5068953;28;20052;-57
2022/01/27 08:59:17;;;;;;;14.55;5.88;;;;;;;;;;5062841;28;20056;-56
2022/01/27 09:01:44;;;;;;;17.58;6.25;;;;;;;;;;5069390;28;20140;-57
2022/01/27 09:04:10;;;;;;;20.25;5.68;;;;;;;;;;5063198;28;20067;-57
2022/01/27 09:06:37;;;;;;;15.15;4.97;;;;;;;;;;5068510;28;20151;-54
2022/01/27 09:09:06;;;;;;;12.27;5.55;;;;;;;;;;5063703;28;20045;-55
2022/01/27 09:11:32;;;;;;;;;;;;;;;;;;5069409;28;20058;-55
2022/01/27 09:13:59;;;;;;;11.13;4.40;;;;;;;;;;5059099;28;19932;-56
2022/01/27 09:16:28;;;;;;;14.50;4.45;;;;;;;;;;5068012;28;20052;-56
2022/01/27 09:18:54;;;;;;;14.20;4.57;;;;;;;;;;5061933;28;20048;-53
2022/01/27 09:21:25;;;;;;;13.43;4.85;;;;;;;;;;5068526;28;20049;-54
2022/01/27 09:23:53;;;;;;;18.50;4.82;;;;;;;;;;5062496;28;20052;-54
2022/01/27 09:26:42;;;;;;;15.70;5.18;;;;;;;;;;5068304;28;20079;-57
2022/01/27 09:29:08;;;;;;;12.63;3.95;;;;;;;;;;5062581;28;20045;-53
2022/01/27 09:31:35;;;;;;;11.90;4.13;;;;;;;;;;5068009;28;20134;-54
2022/01/27 09:34:03;;;;;;;12.70;4.75;;;;;;;;;;5062969;28;20155;-57
2022/01/27 09:36:29;;;;;;;13.13;4.50;;;;;;;;;;5070997;28;20139;-55
2022/01/27 09:38:56;;;;;;;11.43;4.30;;;;;;;;;;5070020;28;20068;-57
2022/01/27 09:41:25;;;;;;;13.20;4.28;;;;;;;;;;5062514;28;20518;-56
2022/01/27 09:43:53;;;;;;;14.35;4.63;;;;;;;;;;5062104;28;20080;-59
2022/01/27 09:46:21;;;;;;;14.07;4.53;;;;;;;;;;5058038;28;20056;-56
2022/01/27 09:48:48;;;;;;;9.70;3.75;;;;;;;;;;5062015;28;20053;-56
2022/01/27 09:53:58;;;;;;;9.02;3.13;;;;;;;;;;5066124;28;20063;-57
2022/01/27 09:56:27;;;;;;;10.73;3.42;;;;;;;;;;5060796;28;20158;-61
2022/01/27 09:58:53;;;;;;;12.35;3.80;;;;;;;;;;5067607;28;20056;-58
2022/01/27 10:01:20;;;;;;;12.55;3.25;;;;;;;;;;5061071;28;20117;-60
2022/01/27 10:03:53;;;;;;;11.60;3.83;;;;;;;;;;5066835;28;20059;-59
2022/01/27 10:06:21;;;;;;;13.43;4.40;;;;;;;;;;5060803;28;20131;-54
2022/01/27 10:09:09;;;;;;;10.85;3.42;;;;;;;;;;5067287;28;20052;-59
2022/01/27 10:11:37;;;;;;;8.55;3.33;;;;;;;;;;5061283;28;20122;-56
2022/01/27 10:14:16;;;;;;;8.63;3.33;;;;;;;;;;5056099;28;20486;-58
2022/01/27 10:16:43;;;;;;;;;;;;;;;;;;5052846;28;20321;-54
2022/01/27 10:19:11;;;;;;;8.07;3.22;;;;;;;;;;5057980;28;19932;-55
2022/01/27 10:21:38;;;;;;;9.57;2.92;;;;;;;;;;5061306;28;20136;-58
2022/01/27 10:24:14;;;;;;;9.07;3.13;;;;;;;;;;5067009;28;20056;-58
2022/01/27 10:26:45;;;;;;;20.63;6.72;;;;;;;;;;5060717;28;20056;-58
2022/01/27 10:29:16;;;;;;;9.18;3.25;;;;;;;;;;5067612;28;20127;-54
2022/01/27 10:31:42;;;;;;;8.85;3.78;;;;;;;;;;5060476;28;20135;-59
2022/01/27 10:34:10;;;;;;;10.30;3.85;;;;;;;;;;5068370;28;20056;-54
2022/01/27 10:36:40;;;;;;;9.68;3.70;;;;;;;;;;5061700;28;20059;-57
2022/01/27 10:39:08;;;;;;;11.52;3.50;;;;;;;;;;5066533;28;20117;-56
2022/01/27 10:41:35;;;;;;;15.57;4.13;;;;;;;;;;5060905;28;20048;-56
2022/01/27 10:44:08;;;;;;;10.88;3.97;;;;;;;;;;5066512;28;20144;-53
2022/01/27 10:46:37;;;;;;;11.23;4.10;;;;;;;;;;5067260;28;20052;-56
2022/01/27 10:49:10;;;;;;;8.85;3.53;;;;;;;;;;5063185;28;20101;-56
2022/01/27 10:51:42;;;;;;;12.35;5.28;;;;;;;;;;5065669;28;20045;-56
2022/01/27 10:54:21;;;;;;;15.88;4.07;;;;;;;;;;5060596;28;20114;-56
2022/01/27 10:56:48;;;;;;;13.82;4.57;;;;;;;;;;5066451;28;20113;-58
2022/01/27 10:59:18;;;;;;;10.85;4.60;;;;;;;;;;5061517;28;20116;-55
2022/01/27 11:01:45;;;;;;;9.55;3.90;;;;;;;;;;5067280;28;20052;-56
2022/01/27 11:04:14;;;;;;;17.75;5.50;;;;;;;;;;5062368;28;20074;-56
2022/01/27 11:06:53;;;;;;;10.25;4.40;;;;;;;;;;5068686;28;20386;-59
2022/01/27 11:09:20;;;;;;;11.13;4.60;;;;;;;;;;5062181;28;20052;-60
2022/01/27 11:11:48;;;;;;;18.90;5.28;;;;;;;;;;5067532;28;20057;-55
2022/01/27 11:14:16;;;;;;;13.38;4.78;;;;;;;;;;5059747;28;20142;-56
2022/01/27 11:16:44;;;;;;;15.53;4.90;;;;;;;;;;5066116;28;20063;-59
2022/01/27 11:19:23;;;;;;;18.53;4.80;;;;;;;;;;5061130;28;20118;-53
2022/01/27 11:21:55;;;;;;;16.00;4.82;;;;;;;;;;5066294;28;20139;-57
2022/01/27 11:24:27;;;;;;;13.50;4.88;;;;;;;;;;5059864;28;20056;-55
2022/01/27 11:26:55;;;;;;;10.70;4.38;;;;;;;;;;5065852;28;20142;-56
2022/01/27 11:29:24;;;;;;;16.05;5.22;;;;;;;;;;5060598;28;20105;-56
2022/01/27 11:32:09;;;;;;;20.05;5.97;;;;;;;;;;5065502;28;20052;-55
2022/01/27 11:34:49;;;;;;;22.90;5.93;;;;;;;;;;5059158;28;20102;-56
2022/01/27 11:37:18;;;;;;;14.15;5.05;;;;;;;;;;5065416;28;20068;-54
2022/01/27 11:39:52;;;;;;;13.68;5.07;;;;;;;;;;5060355;28;20048;-53
2022/01/27 11:42:42;;;;;;;15.07;6.53;;;;;;;;;;5065587;28;20056;-57
2022/01/27 11:45:29;;;;;;;19.73;6.10;;;;;;;;;;5059308;28;20048;-57
2022/01/27 11:47:57;;;;;;;17.98;4.95;;;;;;;;;;5045252;28;20049;-57
2022/01/27 11:50:32;;;;;;;23.00;5.70;;;;;;;;;;5050860;28;20045;-55
2022/01/27 11:52:58;;;;;;;16.17;5.22;;;;;;;;;;5065305;28;20071;-53
2022/01/27 11:55:45;;;;;;;13.75;4.72;;;;;;;;;;5059158;28;20151;-56
2022/01/27 11:58:16;;;;;;;17.33;4.22;;;;;;;;;;5065784;28;20063;-53
2022/01/27 12:01:01;;;;;;;22.95;5.25;;;;;;;;;;5059526;28;20044;-55
2022/01/27 12:03:28;;;;;;;16.48;4.88;;;;;;;;;;5065467;28;20163;-59
2022/01/27 12:06:09;;;;;;;23.00;5.40;;;;;;;;;;5060884;28;20063;-56
2022/01/27 12:08:35;;;;;;;19.17;5.30;;;;;;;;;;5059610;28;20048;-59
2022/01/27 12:11:03;;;;;;;12.85;4.68;;;;;;;;;;5049709;28;20059;-56
2022/01/27 12:13:55;;;;;;;10.70;4.13;;;;;;;;;;5064991;28;20045;-57
2022/01/27 12:16:36;;;;;;;15.75;5.20;;;;;;;;;;5043461;28;20061;-57
2022/01/27 12:19:04;;;;;;;12.85;5.32;;;;;;;;;;5069625;28;20056;-58
2022/01/27 12:21:32;;;;;;;15.00;4.80;;;;;;;;;;5063693;28;20175;-54
2022/01/27 12:24:21;;;;;;;15.77;5.00;;;;;;;;;;5069265;28;20311;-54
2022/01/27 12:26:48;;;;;;;18.45;4.72;;;;;;;;;;5063943;28;20072;-56
2022/01/27 12:29:21;;;;;;;18.15;5.20;;;;;;;;;;5070773;28;20132;-58
2022/01/27 12:31:49;;;;;;;11.27;4.63;;;;;;;;;;5065236;28;20053;-59
2022/01/27 12:34:16;;;;;;;13.40;4.55;;;;;;;;;;5069125;28;20049;-58
2022/01/27 12:36:53;;;;;;;21.83;5.03;;;;;;;;;;5064778;28;20048;-59
2022/01/27 12:39:20;;;;;;;21.67;5.13;;;;;;;;;;5071173;28;20110;-59
2022/01/27 12:41:48;;;;;;;10.68;4.25;;;;;;;;;;5065762;28;20048;-59
2022/01/27 12:44:15;;;;;;;18.95;4.40;;;;;;;;;;5068648;28;20527;-56
2022/01/27 12:46:56;;;;;;;10.23;4.22;;;;;;;;;;5062594;28;20075;-53
2022/01/27 12:49:39;;;;;;;20.65;5.00;;;;;;;;;;5067777;28;20058;-53
2022/01/27 12:52:09;;;;;;;17.75;5.05;;;;;;;;;;5060326;28;20048;-57
2022/01/27 12:54:36;;;;;;;20.83;5.43;;;;;;;;;;5067621;28;20083;-56
2022/01/27 12:57:04;;;;;;;15.50;5.47;;;;;;;;;;5062876;28;20059;-56
2022/01/27 12:59:32;;;;;;;17.20;5.00;;;;;;;;;;5068994;28;20133;-51
2022/01/27 13:01:58;;;;;;;15.90;5.30;;;;;;;;;;5064458;28;20041;-55
2022/01/27 13:04:26;;;;;;;16.98;4.43;;;;;;;;;;5065890;28;20044;-56
2022/01/27 13:06:53;;;;;;;26.08;5.32;;;;;;;;;;5068130;28;20049;-56
2022/01/27 13:09:21;;;;;;;14.65;4.47;;;;;;;;;;5061975;28;20151;-58
2022/01/27 13:11:50;;;;;;;12.20;4.40;;;;;;;;;;5066416;28;20105;-57
2022/01/27 13:14:17;;;;;;;;;;;;;;;;;;5047467;28;20155;-55
2022/01/27 13:16:47;;;;;;;15.60;3.67;;;;;;;;;;5047582;28;19939;-55
2022/01/27 13:19:22;;;;;;;12.32;3.35;;;;;;;;;;5056570;28;20153;-56
2022/01/27 13:21:59;;;;;;;11.50;3.63;;;;;;;;;;5067804;28;20090;-55
2022/01/27 13:24:30;;;;;;;8.65;3.15;;;;;;;;;;5061952;28;20351;-55
2022/01/27 13:27:05;;;;;;;12.50;2.95;;;;;;;;;;5067249;28;20052;-56
2022/01/27 13:29:39;;;;;;;8.68;2.67;;;;;;;;;;5062538;28;20058;-53
2022/01/27 13:32:06;;;;;;;10.80;2.53;;;;;;;;;;5067386;28;20063;-57
2022/01/27 13:34:34;;;;;;;9.48;2.20;;;;;;;;;;5062101;28;20053;-56
2022/01/27 13:37:02;;;;;;;19.20;5.10;;;;;;;;;;5068519;28;20339;-58
2022/01/27 13:41:16;;;;;;;14.27;3.83;;;;;;;;;;5062620;28;20298;-58
2022/01/27 13:42:22;;;;;;;9.13;2.88;;;;;;;;;;5067272;28;20053;-57
2022/01/27 13:44:53;;;;;;;15.32;2.90;;;;;;;;;;5062335;28;20109;-57
2022/01/27 13:47:24;;;;;;;7.70;2.33;;;;;;;;;;5064461;28;20056;-59
2022/01/27 13:49:51;;;;;;;10.25;2.53;;;;;;;;;;5062027;28;20057;-56
2022/01/27 13:52:18;;;;;;;20.02;2.70;;;;;;;;;;5067547;28;20071;-60
2022/01/27 13:54:46;;;;;;;6.80;2.45;;;;;;;;;;5061786;28;20048;-58
2022/01/27 13:57:14;;;;;;;7.32;2.20;;;;;;;;;;5059631;28;20049;-58
2022/01/27 13:59:47;;;;;;;9.43;2.00;;;;;;;;;;5061520;28;20075;-59
2022/01/27 14:02:14;;;;;;;7.05;2.00;;;;;;;;;;5067297;28;20052;-59
2022/01/27 14:04:44;;;;;;;6.68;2.10;;;;;;;;;;5062015;28;20053;-57
2022/01/27 14:07:11;;;;;;;14.13;1.83;;;;;;;;;;5067573;28;20775;-59
2022/01/27 14:09:41;;;;;;;4.35;1.70;;;;;;;;;;5063827;28;20048;-59
2022/01/27 14:12:09;;;;;;;12.75;2.20;;;;;;;;;;5041900;28;20057;-59
2022/01/27 14:14:46;;;;;;;9.80;1.92;;;;;;;;;;5064257;28;20116;-57
2022/01/27 14:17:20;;;;;;;7.78;1.63;;;;;;;;;;5065859;28;20131;-55
2022/01/27 14:19:49;;;;;;;4.45;1.83;;;;;;;;;;5066474;28;20068;-59
2022/01/27 14:22:17;;;;;;;8.40;1.60;;;;;;;;;;5059524;28;20060;-58
2022/01/27 14:25:00;;;;;;;5.20;1.58;;;;;;;;;;5066243;28;20076;-56
2022/01/27 14:27:35;;;;;;;11.32;1.77;;;;;;;;;;5060096;28;20063;-57
2022/01/27 14:30:02;;;;;;;12.10;2.03;;;;;;;;;;5066759;28;20048;-57
2022/01/27 14:32:31;;;;;;;11.10;1.33;;;;;;;;;;5060652;28;20079;-58
2022/01/27 14:34:57;;;;;;;9.85;1.60;;;;;;;;;;5066056;28;20593;-56
2022/01/27 14:37:24;;;;;;;6.55;1.73;;;;;;;;;;5059507;28;20072;-56
2022/01/27 14:39:50;;;;;;;7.20;1.88;;;;;;;;;;5066467;28;20072;-56
2022/01/27 14:42:22;;;;;;;8.10;1.75;;;;;;;;;;5060017;28;20055;-57
2022/01/27 14:44:51;;;;;;;10.15;1.70;;;;;;;;;;5066173;28;20076;-53
2022/01/27 14:47:17;;;;;;;8.18;1.63;;;;;;;;;;5061164;28;20082;-55
2022/01/27 14:49:46;;;;;;;10.70;1.77;;;;;;;;;;5066747;28;20087;-56
2022/01/27 14:52:15;;;;;;;5.60;1.48;;;;;;;;;;5060312;28;20044;-56
2022/01/27 14:54:42;;;;;;;16.63;1.70;;;;;;;;;;5066263;28;20072;-51
2022/01/27 14:57:10;;;;;;;8.52;1.58;;;;;;;;;;5059464;28;20053;-56
2022/01/27 14:59:36;;;;;;;10.52;2.05;;;;;;;;;;5066095;28;20056;-52
2022/01/27 15:02:04;;;;;;;10.85;1.80;;;;;;;;;;5059585;28;20102;-56